createdAt,value
2019-03-02T00:00:57.601Z,86.06
2019-03-02T00:02:01.763Z,86.05
2019-03-02T00:03:05.951Z,86.16
2019-03-02T00:04:11.019Z,86.31
2019-03-02T00:05:14.384Z,86.56
2019-03-02T00:06:21.499Z,86.84
2019-03-02T00:07:24.770Z,86.96
2019-03-02T00:08:28.954Z,87.11
2019-03-02T00:09:34.633Z,87.23
2019-03-02T00:10:40.765Z,87.27
2019-03-02T00:11:41.541Z,87.26
2019-03-02T00:12:45.774Z,87.21
2019-03-02T00:13:49.910Z,87.20
2019-03-02T00:14:55.003Z,87.31
2019-03-02T00:15:58.242Z,87.25
2019-03-02T00:17:02.381Z,87.28
2019-03-02T00:18:09.547Z,87.28
2019-03-02T00:19:12.842Z,87.40
2019-03-02T00:20:18.180Z,87.39
2019-03-02T00:21:21.161Z,87.47
2019-03-02T00:22:25.336Z,87.67
2019-03-02T00:23:29.489Z,87.89
2019-03-02T00:24:33.615Z,88.04
2019-03-02T00:25:37.722Z,88.12
2019-03-02T00:26:42.866Z,88.27
2019-03-02T00:27:46.158Z,88.42
2019-03-02T00:28:50.324Z,88.45
2019-03-02T00:29:54.527Z,88.46
2019-03-02T00:30:58.765Z,88.46
2019-03-02T00:32:05.889Z,88.61
2019-03-02T00:33:07.058Z,88.71
2019-03-02T00:34:11.276Z,88.89
2019-03-02T00:35:15.370Z,89.00
2019-03-02T00:36:20.182Z,89.07
2019-03-02T00:37:23.797Z,89.20
2019-03-02T00:38:27.974Z,89.34
2019-03-02T00:39:31.977Z,89.40
2019-03-02T00:40:36.271Z,89.46
2019-03-02T00:41:42.186Z,89.60
2019-03-02T00:42:44.708Z,89.64
2019-03-02T00:43:48.868Z,89.73
2019-03-02T00:44:53.063Z,89.75
2019-03-02T00:45:57.488Z,89.69
2019-03-02T00:47:01.304Z,89.71
2019-03-02T00:48:07.525Z,89.72
2019-03-02T00:49:09.704Z,89.72
2019-03-02T00:50:13.918Z,89.74
2019-03-02T00:51:18.049Z,89.84
2019-03-02T00:52:23.420Z,89.85
2019-03-02T00:53:26.417Z,89.77
2019-03-02T00:54:30.583Z,89.75
2019-03-02T00:55:34.903Z,89.65
2019-03-02T00:56:39.881Z,89.74
2019-03-02T00:57:43.244Z,89.76
2019-03-02T00:58:47.347Z,89.81
2019-03-02T00:59:51.513Z,89.81
2019-03-02T01:00:55.754Z,89.71
2019-03-02T01:02:00.776Z,89.70
2019-03-02T01:03:04.268Z,89.73
2019-03-02T01:04:08.437Z,89.74
2019-03-02T01:05:12.547Z,89.72
2019-03-02T01:06:16.680Z,89.61
2019-03-02T01:07:23.564Z,89.53
2019-03-02T01:08:25.129Z,89.40
2019-03-02T01:09:29.192Z,89.29
2019-03-02T01:10:33.379Z,89.17
2019-03-02T01:11:37.558Z,89.16
2019-03-02T01:12:43.911Z,89.16
2019-03-02T01:13:46.000Z,89.10
2019-03-02T01:14:50.266Z,89.04
2019-03-02T01:15:54.431Z,88.78
2019-03-02T01:16:58.615Z,88.73
2019-03-02T01:18:03.676Z,88.74
2019-03-02T01:19:07.036Z,88.69
2019-03-02T01:20:11.097Z,88.69
2019-03-02T01:21:15.361Z,88.68
2019-03-02T01:22:19.599Z,88.59
2019-03-02T01:23:27.426Z,88.46
2019-03-02T01:24:27.903Z,88.48
2019-03-02T01:25:32.178Z,88.47
2019-03-02T01:26:36.371Z,88.45
2019-03-02T01:27:40.439Z,88.43
2019-03-02T01:28:45.346Z,88.43
2019-03-02T01:29:51.692Z,88.42
2019-03-02T01:30:53.038Z,88.40
2019-03-02T01:31:57.280Z,88.39
2019-03-02T01:33:01.503Z,88.38
2019-03-02T01:34:08.314Z,88.39
2019-03-02T01:35:09.951Z,88.41
2019-03-02T01:36:14.073Z,88.44
2019-03-02T01:37:18.226Z,88.43
2019-03-02T01:38:22.553Z,88.40
2019-03-02T01:39:29.248Z,88.47
2019-03-02T01:40:30.960Z,88.46
2019-03-02T01:41:35.111Z,88.41
2019-03-02T01:42:39.287Z,88.48
2019-03-02T01:43:43.545Z,88.54
2019-03-02T01:44:48.731Z,88.56
2019-03-02T01:45:51.876Z,88.53
2019-03-02T01:46:55.981Z,88.50
2019-03-02T01:48:00.247Z,88.49
2019-03-02T01:49:04.450Z,88.48
2019-03-02T01:50:11.697Z,88.47
2019-03-02T01:51:12.749Z,88.42
2019-03-02T01:52:16.992Z,88.36
2019-03-02T01:53:21.193Z,88.30
2019-03-02T01:54:25.342Z,88.25
2019-03-02T01:55:31.269Z,88.14
2019-03-02T01:56:33.840Z,88.14
2019-03-02T01:57:38.035Z,88.08
2019-03-02T01:58:42.257Z,88.02
2019-03-02T01:59:46.374Z,87.90
2019-03-02T02:00:50.540Z,87.88
2019-03-02T02:01:56.502Z,87.84
2019-03-02T02:02:58.972Z,87.77
2019-03-02T02:04:03.145Z,87.68
2019-03-02T02:05:07.348Z,87.62
2019-03-02T02:06:11.507Z,87.65
2019-03-02T02:07:18.155Z,87.56
2019-03-02T02:08:19.865Z,87.58
2019-03-02T02:09:24.048Z,87.56
2019-03-02T02:10:28.307Z,87.58
2019-03-02T02:11:32.543Z,87.52
2019-03-02T02:12:36.671Z,87.46
2019-03-02T02:13:42.831Z,87.54
2019-03-02T02:14:44.993Z,87.53
2019-03-02T02:15:49.180Z,87.51
2019-03-02T02:16:53.281Z,87.38
2019-03-02T02:17:57.538Z,87.60
2019-03-02T02:19:02.513Z,87.83
2019-03-02T02:20:05.830Z,87.96
2019-03-02T02:21:09.967Z,88.08
2019-03-02T02:22:14.115Z,88.19
2019-03-02T02:23:18.291Z,88.22
2019-03-02T02:24:24.911Z,88.20
2019-03-02T02:25:26.746Z,88.19
2019-03-02T02:26:30.891Z,88.09
2019-03-02T02:27:35.014Z,88.03
2019-03-02T02:28:39.265Z,87.99
2019-03-02T02:29:43.654Z,87.90
2019-03-02T02:30:47.677Z,87.89
2019-03-02T02:31:51.777Z,87.77
2019-03-02T02:33:03.251Z,87.70
2019-03-02T02:34:00.083Z,87.60
2019-03-02T02:35:04.393Z,87.52
2019-03-02T02:36:08.520Z,87.44
2019-03-02T02:37:12.670Z,87.32
2019-03-02T02:38:17.620Z,87.27
2019-03-02T02:39:21.137Z,87.22
2019-03-02T02:40:25.356Z,87.14
2019-03-02T02:41:29.463Z,87.07
2019-03-02T02:42:33.718Z,87.03
2019-03-02T02:43:37.844Z,86.99
2019-03-02T02:44:41.982Z,86.98
2019-03-02T02:45:48.995Z,86.93
2019-03-02T02:46:50.401Z,86.88
2019-03-02T02:47:54.840Z,86.79
2019-03-02T02:48:58.823Z,86.73
2019-03-02T02:50:02.993Z,86.63
2019-03-02T02:51:10.078Z,86.67
2019-03-02T02:52:11.394Z,86.68
2019-03-02T02:53:15.523Z,86.69
2019-03-02T02:54:23.505Z,86.70
2019-03-02T02:55:23.914Z,86.67
2019-03-02T02:56:28.159Z,86.65
2019-03-02T02:57:33.624Z,86.60
2019-03-02T02:58:36.588Z,86.61
2019-03-02T02:59:40.688Z,86.59
2019-03-02T03:00:44.888Z,86.60
2019-03-02T03:01:49.002Z,86.58
2019-03-02T03:02:53.205Z,86.54
2019-03-02T03:03:59.579Z,86.51
2019-03-02T03:05:01.587Z,86.44
2019-03-02T03:06:05.694Z,86.38
2019-03-02T03:07:12.355Z,86.34
2019-03-02T03:08:13.981Z,86.31
2019-03-02T03:09:18.250Z,86.30
2019-03-02T03:10:23.465Z,86.26
2019-03-02T03:11:26.548Z,86.21
2019-03-02T03:12:30.804Z,86.19
2019-03-02T03:13:35.954Z,86.07
2019-03-02T03:14:39.085Z,85.98
2019-03-02T03:15:43.395Z,86.06
2019-03-02T03:16:49.458Z,86.06
2019-03-02T03:17:51.683Z,86.13
2019-03-02T03:18:55.867Z,86.25
2019-03-02T03:19:59.972Z,86.38
2019-03-02T03:21:04.180Z,86.40
2019-03-02T03:22:09.155Z,86.50
2019-03-02T03:23:12.516Z,86.56
2019-03-02T03:24:16.693Z,86.64
2019-03-02T03:25:20.795Z,86.66
2019-03-02T03:26:24.989Z,86.68
2019-03-02T03:27:29.113Z,86.68
2019-03-02T03:28:33.388Z,86.64
2019-03-02T03:29:37.595Z,86.60
2019-03-02T03:30:41.701Z,86.54
2019-03-02T03:31:45.894Z,86.44
2019-03-02T03:32:55.892Z,86.38
2019-03-02T03:33:54.321Z,86.33
2019-03-02T03:34:58.520Z,86.23
2019-03-02T03:36:02.621Z,86.17
2019-03-02T03:37:08.317Z,86.13
2019-03-02T03:38:11.064Z,86.09
2019-03-02T03:39:15.231Z,86.04
2019-03-02T03:40:19.982Z,85.96
2019-03-02T03:41:23.594Z,85.89
2019-03-02T03:42:27.799Z,85.87
2019-03-02T03:43:31.938Z,85.83
2019-03-02T03:44:36.095Z,85.77
2019-03-02T03:45:43.245Z,85.71
2019-03-02T03:46:44.519Z,85.60
2019-03-02T03:47:48.644Z,85.56
2019-03-02T03:48:56.337Z,85.47
2019-03-02T03:49:56.959Z,85.48
2019-03-02T03:51:01.221Z,85.45
2019-03-02T03:52:09.178Z,85.46
2019-03-02T03:53:09.586Z,85.41
2019-03-02T03:54:13.777Z,85.45
2019-03-02T03:55:23.776Z,85.39
2019-03-02T03:56:22.087Z,85.36
2019-03-02T03:57:26.235Z,85.37
2019-03-02T03:58:34.898Z,85.34
2019-03-02T03:59:34.527Z,85.34
2019-03-02T04:00:40.302Z,85.33
2019-03-02T04:01:42.894Z,85.31
2019-03-02T04:02:47.159Z,85.26
2019-03-02T04:03:51.683Z,85.26
2019-03-02T04:04:55.434Z,85.24
2019-03-02T04:05:59.610Z,85.23
2019-03-02T04:07:06.361Z,85.24
2019-03-02T04:08:08.092Z,85.24
2019-03-02T04:09:12.283Z,85.22
2019-03-02T04:10:24.565Z,85.22
2019-03-02T04:11:20.716Z,85.21
2019-03-02T04:12:25.881Z,85.23
2019-03-02T04:13:29.108Z,85.23
2019-03-02T04:14:33.236Z,85.22
2019-03-02T04:15:41.617Z,85.18
2019-03-02T04:16:41.617Z,85.18
2019-03-02T04:17:45.755Z,85.12
2019-03-02T04:18:54.988Z,85.08
2019-03-02T04:19:54.224Z,85.09
2019-03-02T04:20:58.316Z,85.05
2019-03-02T04:22:06.249Z,85.03
2019-03-02T04:23:06.735Z,85.00
2019-03-02T04:24:10.803Z,84.97
2019-03-02T04:25:17.836Z,84.96
2019-03-02T04:26:19.319Z,84.92
2019-03-02T04:27:23.417Z,84.96
2019-03-02T04:28:31.388Z,84.92
2019-03-02T04:29:31.787Z,84.94
2019-03-02T04:30:35.976Z,84.93
2019-03-02T04:31:44.161Z,84.91
2019-03-02T04:32:44.360Z,84.86
2019-03-02T04:33:48.520Z,84.84
2019-03-02T04:34:54.390Z,84.81
2019-03-02T04:35:56.810Z,84.64
2019-03-02T04:37:00.962Z,84.67
2019-03-02T04:38:05.140Z,84.67
2019-03-02T04:39:13.389Z,84.68
2019-03-02T04:40:13.538Z,84.66
2019-03-02T04:41:17.658Z,84.64
2019-03-02T04:42:21.944Z,84.62
2019-03-02T04:43:26.159Z,84.52
2019-03-02T04:44:30.835Z,84.45
2019-03-02T04:45:36.483Z,84.43
2019-03-02T04:46:38.664Z,84.39
2019-03-02T04:47:42.776Z,84.41
2019-03-02T04:48:46.923Z,84.45
2019-03-02T04:49:51.468Z,84.47
2019-03-02T04:50:55.226Z,84.51
2019-03-02T04:51:59.474Z,84.42
2019-03-02T04:53:03.633Z,84.46
2019-03-02T04:54:07.867Z,84.42
2019-03-02T04:55:13.447Z,84.44
2019-03-02T04:56:16.164Z,84.46
2019-03-02T04:57:20.416Z,84.54
2019-03-02T04:58:27.635Z,84.64
2019-03-02T04:59:30.880Z,84.63
2019-03-02T05:00:35.082Z,84.71
2019-03-02T05:01:43.763Z,84.72
2019-03-02T05:02:43.304Z,84.78
2019-03-02T05:03:47.572Z,84.74
2019-03-02T05:04:51.769Z,84.74
2019-03-02T05:05:55.941Z,84.74
2019-03-02T05:07:00.179Z,84.75
2019-03-02T05:08:05.181Z,84.76
2019-03-02T05:09:08.580Z,84.80
2019-03-02T05:10:12.819Z,84.72
2019-03-02T05:11:17.012Z,84.71
2019-03-02T05:12:21.231Z,84.80
2019-03-02T05:13:28.389Z,84.72
2019-03-02T05:14:29.575Z,84.72
2019-03-02T05:15:33.784Z,84.71
2019-03-02T05:16:37.999Z,84.69
2019-03-02T05:17:42.876Z,84.73
2019-03-02T05:18:49.713Z,84.73
2019-03-02T05:19:50.613Z,84.76
2019-03-02T05:20:54.721Z,84.79
2019-03-02T05:21:58.970Z,84.77
2019-03-02T05:23:03.186Z,84.74
2019-03-02T05:24:09.155Z,84.69
2019-03-02T05:25:11.508Z,84.69
2019-03-02T05:26:15.803Z,84.71
2019-03-02T05:27:19.980Z,84.69
2019-03-02T05:28:24.192Z,84.69
2019-03-02T05:29:28.329Z,84.64
2019-03-02T05:30:32.476Z,84.63
2019-03-02T05:31:37.625Z,84.59
2019-03-02T05:32:40.810Z,84.58
2019-03-02T05:33:48.021Z,84.59
2019-03-02T05:34:51.303Z,84.56
2019-03-02T05:35:55.370Z,84.58
2019-03-02T05:37:02.560Z,84.56
2019-03-02T05:38:03.720Z,84.52
2019-03-02T05:39:08.032Z,84.52
2019-03-02T05:40:12.175Z,84.49
2019-03-02T05:41:16.387Z,84.47
2019-03-02T05:42:20.492Z,84.48
2019-03-02T05:43:27.108Z,84.44
2019-03-02T05:44:28.970Z,84.50
2019-03-02T05:45:33.166Z,84.44
2019-03-02T05:46:37.270Z,84.43
2019-03-02T05:47:41.458Z,84.40
2019-03-02T05:48:45.715Z,84.40
2019-03-02T05:49:50.753Z,84.41
2019-03-02T05:50:54.101Z,84.44
2019-03-02T05:51:58.286Z,84.41
2019-03-02T05:53:02.377Z,84.40
2019-03-02T05:54:07.574Z,84.40
2019-03-02T05:55:18.123Z,84.40
2019-03-02T05:56:17.097Z,84.38
2019-03-02T05:57:21.220Z,84.41
2019-03-02T05:58:25.338Z,84.39
2019-03-02T05:59:29.561Z,84.41
2019-03-02T06:00:33.962Z,84.40
2019-03-02T06:01:40.425Z,84.41
2019-03-02T06:02:42.111Z,84.39
2019-03-02T06:03:46.891Z,84.39
2019-03-02T06:04:53.601Z,84.39
2019-03-02T06:05:54.794Z,84.42
2019-03-02T06:06:58.864Z,84.45
2019-03-02T06:08:03.023Z,84.48
2019-03-02T06:09:08.400Z,84.50
2019-03-02T06:10:13.575Z,84.48
2019-03-02T06:11:15.697Z,84.42
2019-03-02T06:12:19.826Z,84.38
2019-03-02T06:13:24.685Z,84.33
2019-03-02T06:14:30.452Z,84.34
2019-03-02T06:15:32.483Z,84.33
2019-03-02T06:16:36.573Z,84.31
2019-03-02T06:17:40.835Z,84.27
2019-03-02T06:18:45.363Z,84.24
2019-03-02T06:19:49.177Z,84.23
2019-03-02T06:20:53.379Z,84.23
2019-03-02T06:21:57.540Z,84.22
2019-03-02T06:23:01.729Z,84.22
2019-03-02T06:24:06.578Z,84.17
2019-03-02T06:25:19.364Z,84.21
2019-03-02T06:26:16.393Z,84.21
2019-03-02T06:27:20.458Z,84.20
2019-03-02T06:28:24.714Z,84.22
2019-03-02T06:29:29.463Z,84.20
2019-03-02T06:30:33.109Z,84.16
2019-03-02T06:31:37.315Z,84.12
2019-03-02T06:32:41.421Z,84.08
2019-03-02T06:33:45.656Z,84.07
2019-03-02T06:34:51.998Z,84.02
2019-03-02T06:35:53.971Z,84.00
2019-03-02T06:36:58.208Z,84.00
2019-03-02T06:38:02.296Z,83.97
2019-03-02T06:39:07.865Z,83.96
2019-03-02T06:40:10.625Z,83.94
2019-03-02T06:41:14.795Z,83.92
2019-03-02T06:42:19.035Z,83.89
2019-03-02T06:43:23.251Z,83.93
2019-03-02T06:44:27.400Z,83.92
2019-03-02T06:45:31.646Z,83.92
2019-03-02T06:46:35.753Z,83.92
2019-03-02T06:47:40.035Z,83.90
2019-03-02T06:48:45.134Z,83.89
2019-03-02T06:49:48.478Z,83.85
2019-03-02T06:50:52.598Z,83.85
2019-03-02T06:51:56.887Z,83.88
2019-03-02T06:53:01.421Z,83.84
2019-03-02T06:54:09.076Z,83.79
2019-03-02T06:55:09.384Z,83.83
2019-03-02T06:56:15.681Z,83.76
2019-03-02T06:57:17.786Z,83.76
2019-03-02T06:58:22.705Z,83.77
2019-03-02T06:59:26.086Z,83.72
2019-03-02T07:00:30.239Z,83.71
2019-03-02T07:01:34.414Z,83.75
2019-03-02T07:02:38.679Z,83.78
2019-03-02T07:03:45.625Z,83.81
2019-03-02T07:04:46.982Z,83.78
2019-03-02T07:05:51.112Z,83.75
2019-03-02T07:06:55.375Z,83.77
2019-03-02T07:07:59.576Z,83.72
2019-03-02T07:09:05.976Z,83.74
2019-03-02T07:10:07.841Z,83.76
2019-03-02T07:11:12.071Z,83.72
2019-03-02T07:12:16.266Z,83.73
2019-03-02T07:13:23.434Z,83.75
2019-03-02T07:14:28.838Z,83.75
2019-03-02T07:15:30.871Z,83.77
2019-03-02T07:16:35.024Z,83.79
2019-03-02T07:17:39.289Z,83.73
2019-03-02T07:18:43.497Z,83.81
2019-03-02T07:19:48.633Z,83.82
2019-03-02T07:20:51.744Z,83.74
2019-03-02T07:21:57.583Z,83.74
2019-03-02T07:23:00.178Z,83.71
2019-03-02T07:24:04.302Z,83.73
2019-03-02T07:25:08.500Z,83.78
2019-03-02T07:26:15.828Z,83.72
2019-03-02T07:27:16.945Z,83.70
2019-03-02T07:28:21.007Z,83.72
2019-03-02T07:29:25.261Z,83.65
2019-03-02T07:30:29.484Z,83.61
2019-03-02T07:31:33.676Z,83.61
2019-03-02T07:32:37.917Z,83.61
2019-03-02T07:33:42.149Z,83.61
2019-03-02T07:34:46.347Z,83.63
2019-03-02T07:35:51.733Z,83.53
2019-03-02T07:36:54.761Z,83.51
2019-03-02T07:37:59.013Z,83.48
2019-03-02T07:39:03.232Z,83.46
2019-03-02T07:40:09.066Z,83.47
2019-03-02T07:41:11.645Z,83.44
2019-03-02T07:42:15.900Z,83.50
2019-03-02T07:43:20.035Z,83.46
2019-03-02T07:44:24.258Z,83.46
2019-03-02T07:45:31.351Z,83.47
2019-03-02T07:46:32.671Z,83.42
2019-03-02T07:47:36.840Z,83.40
2019-03-02T07:48:41.092Z,83.41
2019-03-02T07:49:46.149Z,83.34
2019-03-02T07:50:49.479Z,83.30
2019-03-02T07:51:53.688Z,83.34
2019-03-02T07:52:57.844Z,83.39
2019-03-02T07:54:05.772Z,83.38
2019-03-02T07:55:06.183Z,83.39
2019-03-02T07:56:10.509Z,83.35
2019-03-02T07:57:14.681Z,83.33
2019-03-02T07:58:19.781Z,83.28
2019-03-02T07:59:22.962Z,83.30
2019-03-02T08:00:27.241Z,83.27
2019-03-02T08:01:31.542Z,83.27
2019-03-02T08:02:35.745Z,83.21
2019-03-02T08:03:39.930Z,83.18
2019-03-02T08:04:44.129Z,83.17
2019-03-02T08:05:50.819Z,83.20
2019-03-02T08:06:52.515Z,83.16
2019-03-02T08:07:56.726Z,83.12
2019-03-02T08:09:00.962Z,83.10
2019-03-02T08:10:05.170Z,83.12
2019-03-02T08:11:10.560Z,83.07
2019-03-02T08:12:13.538Z,82.98
2019-03-02T08:13:17.798Z,83.00
2019-03-02T08:14:21.988Z,83.04
2019-03-02T08:15:26.251Z,83.05
2019-03-02T08:16:30.471Z,83.08
2019-03-02T08:17:34.567Z,83.02
2019-03-02T08:18:38.835Z,83.01
2019-03-02T08:19:44.735Z,83.00
2019-03-02T08:20:47.254Z,82.99
2019-03-02T08:21:51.394Z,83.02
2019-03-02T08:22:55.693Z,82.97
2019-03-02T08:23:59.858Z,82.92
2019-03-02T08:25:04.209Z,82.90
2019-03-02T08:26:08.367Z,82.88
2019-03-02T08:27:12.565Z,82.83
2019-03-02T08:28:16.771Z,82.85
2019-03-02T08:29:21.999Z,82.85
2019-03-02T08:30:25.189Z,82.84
2019-03-02T08:31:29.304Z,82.84
2019-03-02T08:32:33.468Z,82.80
2019-03-02T08:33:45.634Z,82.72
2019-03-02T08:34:42.882Z,82.74
2019-03-02T08:35:48.186Z,82.69
2019-03-02T08:36:54.051Z,82.70
2019-03-02T08:37:54.474Z,82.67
2019-03-02T08:38:58.723Z,82.42
2019-03-02T08:40:02.968Z,82.40
2019-03-02T08:41:07.178Z,82.40
2019-03-02T08:42:12.242Z,82.55
2019-03-02T08:43:16.427Z,82.63
2019-03-02T08:44:19.909Z,82.63
2019-03-02T08:45:23.944Z,82.61
2019-03-02T08:46:28.148Z,82.51
2019-03-02T08:47:32.358Z,82.56
2019-03-02T08:48:36.512Z,82.50
2019-03-02T08:49:41.874Z,82.47
2019-03-02T08:50:45.718Z,82.43
2019-03-02T08:51:49.616Z,82.43
2019-03-02T08:52:53.456Z,82.47
2019-03-02T08:53:57.670Z,82.52
2019-03-02T08:55:01.789Z,82.54
2019-03-02T08:56:09.910Z,82.52
2019-03-02T08:57:10.309Z,82.51
2019-03-02T08:58:14.484Z,82.47
2019-03-02T08:59:18.630Z,82.41
2019-03-02T09:00:22.826Z,82.37
2019-03-02T09:01:27.064Z,82.34
2019-03-02T09:02:31.338Z,82.32
2019-03-02T09:03:37.335Z,82.34
2019-03-02T09:04:39.764Z,82.26
2019-03-02T09:05:50.678Z,82.22
2019-03-02T09:06:48.214Z,82.22
2019-03-02T09:07:52.412Z,82.16
2019-03-02T09:08:56.681Z,82.23
2019-03-02T09:10:00.900Z,82.17
2019-03-02T09:11:05.074Z,82.10
2019-03-02T09:12:09.301Z,82.09
2019-03-02T09:13:13.514Z,81.94
2019-03-02T09:14:17.738Z,81.35
2019-03-02T09:15:25.582Z,81.61
2019-03-02T09:16:26.151Z,81.60
2019-03-02T09:17:30.368Z,81.63
2019-03-02T09:18:44.245Z,81.64
2019-03-02T09:19:38.850Z,81.71
2019-03-02T09:20:43.108Z,81.65
2019-03-02T09:21:48.012Z,81.56
2019-03-02T09:22:51.605Z,81.62
2019-03-02T09:23:55.783Z,81.62
2019-03-02T09:25:00.032Z,81.53
2019-03-02T09:26:04.716Z,81.58
2019-03-02T09:27:08.532Z,81.32
2019-03-02T09:28:12.697Z,81.36
2019-03-02T09:29:16.913Z,81.41
2019-03-02T09:30:21.138Z,81.35
2019-03-02T09:31:26.393Z,81.46
2019-03-02T09:32:29.555Z,81.56
2019-03-02T09:33:33.801Z,81.62
2019-03-02T09:34:40.497Z,81.47
2019-03-02T09:35:42.212Z,81.47
2019-03-02T09:36:46.438Z,81.41
2019-03-02T09:37:50.543Z,81.23
2019-03-02T09:38:57.448Z,81.42
2019-03-02T09:39:59.032Z,81.40
2019-03-02T09:41:03.279Z,81.20
2019-03-02T09:42:07.435Z,81.34
2019-03-02T09:43:12.865Z,81.32
2019-03-02T09:44:15.842Z,81.39
2019-03-02T09:45:20.039Z,81.36
2019-03-02T09:46:24.851Z,81.32
2019-03-02T09:47:28.435Z,81.34
2019-03-02T09:48:32.644Z,81.27
2019-03-02T09:49:37.355Z,80.95
2019-03-02T09:50:41.060Z,81.13
2019-03-02T09:51:48.338Z,81.17
2019-03-02T09:52:49.494Z,81.21
2019-03-02T09:53:53.721Z,81.18
2019-03-02T09:54:57.921Z,81.21
2019-03-02T09:56:02.179Z,81.25
2019-03-02T09:57:06.421Z,81.24
2019-03-02T09:58:10.637Z,81.18
2019-03-02T09:59:14.879Z,81.12
2019-03-02T10:00:22.916Z,81.11
2019-03-02T10:01:23.310Z,81.14
2019-03-02T10:02:27.392Z,81.13
2019-03-02T10:03:31.715Z,81.14
2019-03-02T10:04:39.309Z,80.99
2019-03-02T10:05:40.147Z,80.99
2019-03-02T10:06:44.410Z,80.86
2019-03-02T10:07:48.675Z,81.00
2019-03-02T10:08:52.862Z,81.01
2019-03-02T10:09:57.091Z,80.95
2019-03-02T10:11:02.716Z,80.90
2019-03-02T10:12:05.513Z,80.82
2019-03-02T10:13:09.695Z,80.88
2019-03-02T10:14:13.912Z,80.83
2019-03-02T10:15:19.421Z,80.91
2019-03-02T10:16:22.385Z,80.94
2019-03-02T10:17:26.595Z,80.92
2019-03-02T10:18:30.845Z,80.81
2019-03-02T10:19:34.911Z,80.74
2019-03-02T10:20:42.685Z,80.72
2019-03-02T10:21:47.223Z,80.50
2019-03-02T10:22:47.679Z,80.65
2019-03-02T10:23:51.834Z,80.47
2019-03-02T10:24:56.109Z,80.45
2019-03-02T10:26:03.760Z,80.66
2019-03-02T10:27:06.054Z,80.60
2019-03-02T10:28:08.785Z,80.37
2019-03-02T10:29:13.033Z,80.49
2019-03-02T10:30:17.238Z,80.55
2019-03-02T10:31:21.482Z,80.52
2019-03-02T10:32:25.721Z,80.63
2019-03-02T10:33:32.228Z,80.67
2019-03-02T10:34:34.180Z,80.64
2019-03-02T10:35:38.413Z,80.60
2019-03-02T10:36:42.603Z,80.54
2019-03-02T10:37:46.862Z,80.39
2019-03-02T10:38:51.935Z,80.43
2019-03-02T10:39:55.436Z,80.46
2019-03-02T10:40:59.596Z,80.38
2019-03-02T10:42:03.842Z,80.41
2019-03-02T10:43:10.669Z,80.27
2019-03-02T10:44:12.323Z,80.40
2019-03-02T10:45:16.547Z,80.16
2019-03-02T10:46:20.770Z,79.89
2019-03-02T10:47:25.042Z,79.97
2019-03-02T10:48:29.274Z,80.02
2019-03-02T10:49:33.512Z,79.99
2019-03-02T10:50:37.727Z,80.02
2019-03-02T10:51:41.961Z,79.89
2019-03-02T10:52:48.950Z,79.81
2019-03-02T10:53:50.356Z,79.69
2019-03-02T10:54:55.711Z,79.49
2019-03-02T10:55:58.809Z,79.63
2019-03-02T10:57:03.022Z,79.53
2019-03-02T10:58:07.275Z,79.73
2019-03-02T10:59:11.871Z,79.67
2019-03-02T11:00:15.752Z,79.80
2019-03-02T11:01:19.958Z,79.11
2019-03-02T11:02:25.831Z,79.00
2019-03-02T11:03:31.791Z,79.37
2019-03-02T11:04:32.777Z,79.56
2019-03-02T11:05:37.008Z,79.52
2019-03-02T11:06:41.334Z,79.66
2019-03-02T11:07:49.054Z,79.66
2019-03-02T11:08:51.809Z,79.65
2019-03-02T11:09:56.065Z,79.72
2019-03-02T11:11:00.303Z,79.45
2019-03-02T11:12:06.808Z,79.62
2019-03-02T11:13:08.805Z,79.20
2019-03-02T11:14:12.985Z,79.49
2019-03-02T11:15:17.232Z,79.60
2019-03-02T11:16:21.425Z,79.34
2019-03-02T11:17:25.769Z,79.41
2019-03-02T11:18:30.914Z,79.09
2019-03-02T11:19:34.326Z,78.88
2019-03-02T11:20:38.527Z,79.10
2019-03-02T11:21:42.613Z,78.82
2019-03-02T11:22:46.997Z,77.94
2019-03-02T11:23:51.049Z,78.60
2019-03-02T11:24:55.345Z,78.61
2019-03-02T11:25:59.604Z,78.79
2019-03-02T11:27:03.892Z,78.72
2019-03-02T11:28:08.030Z,78.99
2019-03-02T11:29:12.401Z,78.93
2019-03-02T11:30:16.612Z,78.90
2019-03-02T11:31:20.900Z,78.95
2019-03-02T11:32:25.091Z,78.68
2019-03-02T11:33:30.864Z,78.68
2019-03-02T11:34:36.445Z,78.83
2019-03-02T11:35:39.837Z,77.61
2019-03-02T11:36:45.918Z,78.26
2019-03-02T11:37:49.491Z,77.83
2019-03-02T11:38:52.445Z,78.25
2019-03-02T11:39:56.649Z,78.51
2019-03-02T11:41:00.884Z,78.59
2019-03-02T11:42:05.095Z,78.52
2019-03-02T11:43:12.885Z,78.12
2019-03-02T11:44:13.502Z,78.46
2019-03-02T11:45:17.692Z,78.45
2019-03-02T11:46:21.972Z,78.53
2019-03-02T11:47:26.221Z,78.38
2019-03-02T11:48:30.456Z,77.56
2019-03-02T11:49:38.137Z,77.46
2019-03-02T11:50:38.843Z,77.86
2019-03-02T11:51:43.038Z,77.97
2019-03-02T11:52:47.331Z,77.46
2019-03-02T11:53:52.080Z,77.79
2019-03-02T11:54:55.863Z,77.31
2019-03-02T11:56:03.058Z,77.78
2019-03-02T11:57:04.274Z,77.36
2019-03-02T11:58:08.551Z,77.21
2019-03-02T11:59:12.751Z,77.20
2019-03-02T12:00:17.847Z,76.43
2019-03-02T12:01:21.114Z,76.10
2019-03-02T12:02:25.418Z,76.42
2019-03-02T12:03:29.663Z,77.14
2019-03-02T12:04:33.938Z,77.11
2019-03-02T12:05:40.218Z,77.04
2019-03-02T12:06:42.242Z,76.66
2019-03-02T12:07:46.549Z,76.98
2019-03-02T12:08:50.786Z,76.23
2019-03-02T12:09:55.025Z,77.02
2019-03-02T12:10:59.240Z,77.09
2019-03-02T12:12:03.484Z,77.04
2019-03-02T12:13:07.733Z,76.83
2019-03-02T12:14:11.885Z,77.20
2019-03-02T12:15:16.198Z,77.16
2019-03-02T12:16:22.101Z,76.96
2019-03-02T12:17:24.502Z,76.63
2019-03-02T12:18:28.799Z,76.84
2019-03-02T12:19:32.930Z,76.56
2019-03-02T12:20:37.142Z,76.00
2019-03-02T12:21:41.335Z,76.74
2019-03-02T12:22:45.626Z,76.70
2019-03-02T12:23:49.880Z,74.88
2019-03-02T12:24:54.737Z,75.85
2019-03-02T12:25:58.246Z,75.97
2019-03-02T12:27:02.538Z,75.73
2019-03-02T12:28:06.909Z,75.60
2019-03-02T12:29:13.438Z,74.98
2019-03-02T12:30:15.336Z,75.37
2019-03-02T12:31:19.558Z,76.09
2019-03-02T12:32:23.818Z,75.61
2019-03-02T12:33:28.024Z,76.19
2019-03-02T12:34:34.648Z,76.19
2019-03-02T12:35:40.258Z,76.26
2019-03-02T12:36:40.652Z,76.16
2019-03-02T12:37:44.891Z,76.18
2019-03-02T12:38:49.205Z,76.45
2019-03-02T12:39:56.207Z,75.70
2019-03-02T12:40:57.686Z,75.70
2019-03-02T12:42:01.933Z,75.23
2019-03-02T12:43:07.507Z,75.57
2019-03-02T12:44:10.467Z,75.76
2019-03-02T12:45:14.702Z,74.69
2019-03-02T12:46:18.968Z,74.61
2019-03-02T12:47:23.253Z,75.08
2019-03-02T12:48:29.297Z,75.14
2019-03-02T12:49:31.657Z,74.96
2019-03-02T12:50:35.878Z,74.44
2019-03-02T12:51:40.675Z,74.53
2019-03-02T12:52:44.260Z,74.09
2019-03-02T12:53:48.454Z,74.66
2019-03-02T12:54:52.678Z,74.72
2019-03-02T12:55:57.695Z,74.42
2019-03-02T12:57:01.093Z,73.78
2019-03-02T12:58:05.333Z,73.53
2019-03-02T12:59:09.617Z,72.76
2019-03-02T13:00:13.873Z,72.48
2019-03-02T13:01:18.034Z,73.32
2019-03-02T13:02:22.207Z,74.11
2019-03-02T13:03:27.227Z,74.26
2019-03-02T13:04:30.850Z,72.87
2019-03-02T13:05:36.436Z,73.26
2019-03-02T13:06:39.286Z,73.69
2019-03-02T13:07:46.965Z,74.15
2019-03-02T13:08:47.699Z,74.31
2019-03-02T13:09:51.947Z,73.48
2019-03-02T13:10:56.189Z,73.99
2019-03-02T13:12:02.004Z,72.85
2019-03-02T13:13:04.594Z,73.49
2019-03-02T13:14:08.719Z,73.82
2019-03-02T13:15:13.061Z,73.47
2019-03-02T13:16:19.859Z,73.83
2019-03-02T13:17:22.544Z,74.34
2019-03-02T13:18:25.739Z,74.04
2019-03-02T13:19:29.914Z,73.83
2019-03-02T13:20:35.702Z,74.48
2019-03-02T13:21:38.333Z,74.64
2019-03-02T13:22:42.656Z,74.74
2019-03-02T13:23:46.873Z,74.95
2019-03-02T13:24:53.731Z,74.60
2019-03-02T13:25:55.401Z,74.71
2019-03-02T13:26:59.624Z,74.54
2019-03-02T13:28:05.105Z,74.81
2019-03-02T13:29:07.985Z,75.03
2019-03-02T13:30:12.165Z,75.09
2019-03-02T13:31:16.370Z,73.81
2019-03-02T13:32:21.237Z,74.00
2019-03-02T13:33:24.822Z,74.48
2019-03-02T13:34:29.005Z,74.67
2019-03-02T13:35:33.203Z,74.93
2019-03-02T13:36:40.033Z,75.00
2019-03-02T13:37:41.750Z,74.73
2019-03-02T13:38:46.016Z,74.36
2019-03-02T13:39:51.209Z,74.01
2019-03-02T13:40:54.386Z,74.35
2019-03-02T13:41:58.649Z,73.89
2019-03-02T13:43:04.775Z,74.11
2019-03-02T13:44:07.349Z,73.93
2019-03-02T13:45:11.219Z,73.67
2019-03-02T13:46:15.508Z,74.14
2019-03-02T13:47:19.778Z,74.06